createdAt,value
2023-01-03T00:02:51.643Z,102563.66
2023-01-03T00:07:56.246Z,102568.78
2023-01-03T00:13:00.831Z,102574.00
2023-01-03T00:18:05.838Z,102572.41
2023-01-03T00:23:10.399Z,102566.56
2023-01-03T00:28:14.966Z,102564.97
2023-01-03T00:33:19.548Z,102563.34
2023-01-03T00:38:24.175Z,102572.84
2023-01-03T00:43:31.601Z,102574.78
2023-01-03T00:48:36.951Z,102578.34
2023-01-03T00:53:42.573Z,102610.97
2023-01-03T00:58:47.790Z,102670.94
2023-01-03T01:03:57.446Z,102584.09
2023-01-03T01:09:01.855Z,102586.06
2023-01-03T01:14:20.927Z,102584.50
2023-01-03T01:19:30.729Z,102585.50
2023-01-03T01:24:35.862Z,102589.97
2023-01-03T01:29:41.448Z,102623.44
2023-01-03T01:34:46.019Z,102627.00
2023-01-03T01:39:52.944Z,102591.16
2023-01-03T01:45:02.059Z,102580.16
2023-01-03T01:50:19.686Z,102584.50
2023-01-03T01:55:31.537Z,102624.84
2023-01-03T02:00:37.178Z,102587.22
2023-01-03T02:05:46.391Z,102621.56
2023-01-03T02:11:05.891Z,102567.59
2023-01-03T02:16:29.328Z,102557.31
2023-01-03T02:21:49.389Z,102545.28
2023-01-03T02:27:00.855Z,102539.28
2023-01-03T02:32:05.416Z,102536.66
2023-01-03T02:37:17.716Z,102527.19
2023-01-03T02:42:52.427Z,102568.38
2023-01-03T02:48:18.104Z,102515.03
2023-01-03T02:53:32.861Z,102513.22
2023-01-03T02:58:41.185Z,102507.13
2023-01-03T03:03:50.421Z,102495.88
2023-01-03T03:08:55.059Z,102476.00
2023-01-03T03:14:09.260Z,102475.00
2023-01-03T03:19:56.144Z,102467.16
2023-01-03T03:25:07.154Z,102449.78
2023-01-03T03:30:16.688Z,102447.97
2023-01-03T03:35:25.870Z,102437.47
2023-01-03T03:40:55.184Z,102442.56
2023-01-03T03:46:09.705Z,102421.66
2023-01-03T03:51:19.207Z,102400.84
2023-01-03T03:56:33.196Z,102380.00
2023-01-03T04:01:38.610Z,102354.91
2023-01-03T04:06:51.467Z,102355.53
2023-01-03T04:11:56.388Z,102344.09
2023-01-03T04:17:01.151Z,102354.13
2023-01-03T04:22:08.054Z,102323.56
2023-01-03T04:27:13.857Z,102311.84
2023-01-03T04:32:18.711Z,102320.91
2023-01-03T04:37:23.532Z,102287.78
2023-01-03T04:42:46.387Z,102267.72
2023-01-03T04:47:51.381Z,102254.66
2023-01-03T04:52:58.038Z,102255.50
2023-01-03T04:58:03.469Z,102255.41
2023-01-03T05:03:08.628Z,102278.63
2023-01-03T05:08:14.539Z,102240.50
2023-01-03T05:13:19.537Z,102243.84
2023-01-03T05:18:23.984Z,102224.59
2023-01-03T05:23:48.344Z,102215.81
2023-01-03T05:28:56.466Z,102289.16
2023-01-03T05:34:01.563Z,102204.22
2023-01-03T05:39:07.681Z,102193.72
2023-01-03T05:44:12.624Z,102187.66
2023-01-03T05:49:17.547Z,102202.31
2023-01-03T05:54:22.777Z,102172.91
2023-01-03T05:59:28.373Z,102171.03
2023-01-03T06:04:33.269Z,102159.66
2023-01-03T06:09:37.990Z,102155.22
2023-01-03T06:14:42.638Z,102146.56
2023-01-03T06:19:47.420Z,102147.25
2023-01-03T06:24:52.203Z,102148.94
2023-01-03T06:29:56.947Z,102175.78
2023-01-03T06:35:02.224Z,102217.25
2023-01-03T06:40:07.899Z,102135.16
2023-01-03T06:45:33.361Z,102139.56
2023-01-03T06:50:59.868Z,102126.56
2023-01-03T06:56:06.161Z,102134.41
2023-01-03T07:01:12.162Z,102134.41
2023-01-03T07:06:16.949Z,102128.34
2023-01-03T07:11:21.999Z,102127.56
2023-01-03T07:16:29.495Z,102125.97
2023-01-03T07:21:36.862Z,102132.22
2023-01-03T07:26:41.977Z,102137.53
2023-01-03T07:31:46.836Z,102113.53
2023-01-03T07:36:51.641Z,102112.00
2023-01-03T07:42:14.714Z,102114.78
2023-01-03T07:47:21.451Z,102129.72
2023-01-03T07:52:26.680Z,102111.81
2023-01-03T07:57:32.786Z,102122.25
2023-01-03T08:02:38.261Z,102118.00
2023-01-03T08:07:43.634Z,102120.66
2023-01-03T08:13:08.875Z,102114.81
2023-01-03T08:18:15.917Z,102120.13
2023-01-03T08:23:21.299Z,102114.31
2023-01-03T08:28:26.703Z,102111.88
2023-01-03T08:33:40.451Z,102109.50
2023-01-03T08:38:53.750Z,102126.16
2023-01-03T08:44:02.609Z,102108.28
2023-01-03T08:49:07.611Z,102117.19
2023-01-03T08:54:12.155Z,102113.06
2023-01-03T08:59:17.489Z,102115.91
2023-01-03T09:04:22.716Z,102109.28
2023-01-03T09:09:27.536Z,102113.81
2023-01-03T09:14:33.243Z,102117.41
2023-01-03T09:19:38.644Z,102141.72
2023-01-03T09:24:43.831Z,102128.94
2023-01-03T09:29:50.230Z,102147.25
2023-01-03T09:34:55.440Z,102148.22
2023-01-03T09:40:00.618Z,102158.69
2023-01-03T09:45:07.163Z,102153.66
2023-01-03T09:50:39.220Z,102165.03
2023-01-03T09:56:04.477Z,102172.94
2023-01-03T10:01:53.031Z,102180.81
2023-01-03T10:07:19.876Z,102170.56
2023-01-03T10:12:37.588Z,102174.94
2023-01-03T10:18:28.835Z,102178.44
2023-01-03T10:23:33.524Z,102182.81
2023-01-03T10:28:44.719Z,102186.28
2023-01-03T10:33:51.684Z,102175.13
2023-01-03T10:39:09.778Z,102179.47
2023-01-03T10:44:57.461Z,102167.41
2023-01-03T10:50:03.501Z,102170.94
2023-01-03T10:55:14.041Z,102178.69
2023-01-03T11:00:33.865Z,102183.09
2023-01-03T11:05:41.289Z,102188.34
2023-01-03T11:11:01.768Z,102190.94
2023-01-03T11:16:16.645Z,102197.03
2023-01-03T11:21:35.078Z,102204.84
2023-01-03T11:26:57.539Z,102194.63
2023-01-03T11:32:09.132Z,102206.66
2023-01-03T11:37:25.409Z,102208.41
2023-01-03T11:42:40.815Z,102219.66
2023-01-03T11:48:04.070Z,102250.59
2023-01-03T11:53:23.811Z,102218.75
2023-01-03T11:58:43.477Z,102221.38
2023-01-03T12:04:31.136Z,102230.88
2023-01-03T12:09:52.003Z,102219.06
2023-01-03T12:15:07.035Z,102228.63
2023-01-03T12:20:17.161Z,102236.56
2023-01-03T12:25:56.856Z,102236.66
2023-01-03T12:31:06.915Z,102267.66
2023-01-03T12:36:39.149Z,102238.47
2023-01-03T12:42:02.589Z,102245.41
2023-01-03T12:47:14.924Z,102244.59
2023-01-03T12:52:24.546Z,102249.88
2023-01-03T12:57:51.138Z,102245.66
2023-01-03T13:03:24.343Z,102241.47
2023-01-03T13:08:49.028Z,102281.00
2023-01-03T13:14:27.702Z,102254.41
2023-01-03T13:19:38.483Z,102255.31
2023-01-03T13:24:50.975Z,102267.34
2023-01-03T13:30:00.919Z,102269.91
2023-01-03T13:35:06.788Z,102270.81
2023-01-03T13:40:34.742Z,102269.13
2023-01-03T13:45:51.246Z,102272.63
2023-01-03T13:51:19.111Z,102292.31
2023-01-03T13:56:29.179Z,102288.06
2023-01-03T14:01:40.404Z,102286.31
2023-01-03T14:07:09.187Z,102300.88
2023-01-03T14:12:32.375Z,102301.75
2023-01-03T14:17:40.484Z,102295.78
2023-01-03T14:22:51.958Z,102289.75
2023-01-03T14:27:57.577Z,102287.09
2023-01-03T14:33:02.882Z,102281.94
2023-01-03T14:38:08.581Z,102273.31
2023-01-03T14:43:20.987Z,102289.59
2023-01-03T14:48:27.143Z,102301.56
2023-01-03T14:53:36.382Z,102305.84
2023-01-03T14:58:47.603Z,102307.56
2023-01-03T15:03:54.664Z,102303.28
2023-01-03T15:09:02.802Z,102316.19
2023-01-03T15:14:08.268Z,102326.53
2023-01-03T15:19:35.828Z,102336.06
2023-01-03T15:24:46.928Z,102328.38
2023-01-03T15:29:52.874Z,102325.81
2023-01-03T15:34:57.838Z,102328.41
2023-01-03T15:40:08.345Z,102343.84
2023-01-03T15:45:17.975Z,102354.13
2023-01-03T15:50:27.526Z,102399.56
2023-01-03T15:55:33.093Z,102369.56
2023-01-03T16:00:37.350Z,102372.97
2023-01-03T16:05:42.495Z,102373.84
2023-01-03T16:10:48.785Z,102371.28
2023-01-03T16:15:55.104Z,102407.25
2023-01-03T16:21:01.377Z,102400.38
2023-01-03T16:26:06.813Z,102353.28
2023-01-03T16:31:18.188Z,102350.69
2023-01-03T16:36:41.529Z,102348.13
2023-01-03T16:42:09.341Z,102336.97
2023-01-03T16:47:27.289Z,102335.25
2023-01-03T16:52:38.127Z,102343.00
2023-01-03T16:57:46.271Z,102329.28
2023-01-03T17:03:00.631Z,102355.84
2023-01-03T17:08:22.190Z,102321.59
2023-01-03T17:13:34.121Z,102325.00
2023-01-03T17:18:39.071Z,102327.56
2023-01-03T17:23:44.987Z,102328.41
2023-01-03T17:28:51.790Z,102336.09
2023-01-03T17:33:57.742Z,102327.50
2023-01-03T17:39:04.839Z,102332.63
2023-01-03T17:44:15.931Z,102336.03
2023-01-03T17:49:26.564Z,102324.88
2023-01-03T17:54:32.122Z,102330.84
2023-01-03T17:59:36.725Z,102412.16
2023-01-03T18:05:13.322Z,102337.72
2023-01-03T18:10:05.376Z,102331.75
2023-01-03T18:15:21.280Z,102333.47
2023-01-03T18:20:27.760Z,102326.56
2023-01-03T18:25:32.368Z,102334.25
2023-01-03T18:30:36.925Z,102341.94
2023-01-03T18:35:41.148Z,102345.31
2023-01-03T18:40:45.747Z,102390.59
2023-01-03T18:45:50.906Z,102348.63
2023-01-03T18:50:59.509Z,102342.63
2023-01-03T18:56:05.800Z,102340.03
2023-01-03T19:01:12.389Z,102344.31
2023-01-03T19:06:23.837Z,102328.06
2023-01-03T19:11:32.769Z,102324.63
2023-01-03T19:16:39.377Z,102322.94
2023-01-03T19:21:47.084Z,102328.13
2023-01-03T19:27:02.610Z,102305.06
2023-01-03T19:32:16.148Z,102379.47
2023-01-03T19:37:20.873Z,102302.50
2023-01-03T19:42:43.540Z,102301.59
2023-01-03T19:47:48.163Z,102303.25
2023-01-03T19:52:54.432Z,102295.50
2023-01-03T19:58:01.865Z,102286.06
2023-01-03T20:03:12.905Z,102292.81
2023-01-03T20:08:17.501Z,102292.81
2023-01-03T20:13:27.688Z,102290.22
2023-01-03T20:18:37.961Z,102287.63
2023-01-03T20:23:46.398Z,102291.84
2023-01-03T20:28:52.015Z,102307.16
2023-01-03T20:33:56.677Z,102294.41
2023-01-03T20:39:01.349Z,102296.19
2023-01-03T20:44:10.735Z,102293.69
2023-01-03T20:49:23.992Z,102292.81
2023-01-03T20:54:28.572Z,102279.13
2023-01-03T20:59:33.143Z,102282.56
2023-01-03T21:04:37.986Z,102302.16
2023-01-03T21:09:42.633Z,102294.38
2023-01-03T21:14:50.738Z,102294.31
2023-01-03T21:19:55.304Z,102285.69
2023-01-03T21:24:59.847Z,102286.50
2023-01-03T21:30:06.043Z,102290.72
2023-01-03T21:35:14.913Z,102283.84
2023-01-03T21:40:25.696Z,102281.19
2023-01-03T21:45:33.033Z,102284.63
2023-01-03T21:50:41.235Z,102341.81
2023-01-03T21:55:46.192Z,102319.66
2023-01-03T22:00:51.074Z,102313.72
2023-01-03T22:06:05.548Z,102317.13
2023-01-03T22:11:10.182Z,102322.28
2023-01-03T22:16:15.316Z,102325.72
2023-01-03T22:21:21.713Z,102340.25
2023-01-03T22:26:32.345Z,102341.03
2023-01-03T22:31:38.792Z,102369.09
2023-01-03T22:36:43.396Z,102350.28
2023-01-03T22:41:47.993Z,102353.59
2023-01-03T22:46:52.857Z,102346.69
2023-01-03T22:51:57.456Z,102369.69
2023-01-03T22:57:01.998Z,102360.25
2023-01-03T23:02:06.958Z,102364.47
2023-01-03T23:07:11.754Z,102370.41
2023-01-03T23:12:34.517Z,102383.25
2023-01-03T23:18:14.191Z,102376.50
2023-01-03T23:23:19.177Z,102392.66
2023-01-03T23:28:24.146Z,102402.81
2023-01-03T23:33:29.165Z,102407.09
2023-01-03T23:38:34.458Z,102436.88
2023-01-03T23:43:40.315Z,102414.66
2023-01-03T23:48:47.278Z,102419.69
2023-01-03T23:53:52.724Z,102425.66
2023-01-03T23:58:57.792Z,102432.53
